| time (UTC) | temp C | wind direction | speed KPH | gust KPH | rain 1hr cm | rain 24hr cm | rain mn cm | humidity % | barometer mb |
| 20260505214319 | 14 | 313 | 6.4 | 16.1 | 0.00 | 0.00 | 0.00 | 40 | 1006.4 |
| 20260505213836 | 14 | 325 | 8.0 | 16.1 | 0.00 | 0.00 | 0.00 | 36 | 1006.6 |
| 20260505212859 | 14 | 321 | 4.8 | 20.9 | 0.00 | 0.00 | 0.00 | 43 | 1006.5 |
| 20260505212635 | 14 | 320 | 6.4 | 20.9 | 0.00 | 0.00 | 0.00 | 42 | 1006.4 |
| 20260505212205 | 14 | 306 | 6.4 | 17.7 | 0.00 | 0.00 | 0.00 | 41 | 1006.5 |
| 20260505211720 | 13 | 314 | 6.4 | 16.1 | 0.00 | 0.00 | 0.00 | 42 | 1006.5 |
| 20260505210808 | 13 | 314 | 6.4 | 16.1 | 0.00 | 0.00 | 0.00 | 44 | 1006.5 |
| 20260505210532 | 13 | 323 | 8.0 | 16.1 | 0.00 | 0.00 | 0.00 | 39 | 1006.6 |
| 20260505210037 | 13 | 323 | 8.0 | 17.7 | 0.00 | 0.00 | 0.00 | 42 | 1006.5 |
| 20260505205328 | 13 | 309 | 6.4 | 19.3 | 0.00 | 0.00 | 0.00 | 44 | 1006.6 |
| 20260505204644 | 13 | 321 | 8.0 | 17.7 | 0.00 | 0.00 | 0.00 | 43 | 1006.7 |
| 20260505204204 | 13 | 314 | 9.7 | 22.5 | 0.00 | 0.00 | 0.00 | 40 | 1006.9 |
| 20260505203308 | 13 | 308 | 9.7 | 22.5 | 0.00 | 0.00 | 0.00 | 39 | 1006.9 |
| 20260505201642 | 10 | 309 | 0.0 | 1.6 | 0.00 | 0.00 | 0.00 | 75 | 1002.5 |
| 20260505201602 | 13 | 317 | 9.7 | 20.9 | 0.00 | 0.00 | 0.00 | 42 | 1006.9 |
| 20260505201120 | 13 | 281 | 9.7 | 20.9 | 0.00 | 0.00 | 0.00 | 42 | 1007.0 |
| 20260505200840 | 13 | 322 | 9.7 | 22.5 | 0.00 | 0.00 | 0.00 | 43 | 1007.1 |
| 20260505200611 | 13 | 316 | 8.0 | 22.5 | 0.00 | 0.00 | 0.00 | 44 | 1007.1 |
| 20260505200342 | 13 | 311 | 9.7 | 22.5 | 0.00 | 0.00 | 0.00 | 42 | 1007.1 |
| 20260505195850 | 13 | 321 | 9.7 | 22.5 | 0.00 | 0.00 | 0.00 | 39 | 1007.3 |
| 20260505195626 | 13 | 285 | 8.0 | 17.7 | 0.00 | 0.00 | 0.00 | 39 | 1007.2 |
| 20260505194944 | 13 | 320 | 9.7 | 19.3 | 0.00 | 0.00 | 0.00 | 43 | 1007.2 |
| 20260505194036 | 13 | 306 | 8.0 | 19.3 | 0.00 | 0.00 | 0.00 | 44 | 1007.3 |
| 20260505193332 | 13 | 316 | 8.0 | 17.7 | 0.00 | 0.00 | 0.00 | 42 | 1007.3 |
| 20260505192652 | 13 | 314 | 6.4 | 16.1 | 0.00 | 0.00 | 0.00 | 43 | 1007.4 |
| 20260505191748 | 13 | 302 | 6.4 | 16.1 | 0.00 | 0.00 | 0.00 | 43 | 1007.3 |
| 20260505190627 | 13 | 317 | 8.0 | 19.3 | 0.00 | 0.00 | 0.00 | 39 | 1007.3 |
| 20260505190353 | 13 | 321 | 9.7 | 19.3 | 0.00 | 0.00 | 0.00 | 41 | 1007.3 |
| 20260505190107 | 13 | 312 | 9.7 | 20.9 | 0.00 | 0.00 | 0.00 | 38 | 1007.2 |
| 20260505184943 | 13 | 314 | 8.0 | 20.9 | 0.00 | 0.00 | 0.00 | 41 | 1007.1 |
| 20260505184246 | 13 | 322 | 8.0 | 20.9 | 0.00 | 0.00 | 0.00 | 40 | 1007.1 |
| 20260505183704 | 13 | 316 | 8.0 | 19.3 | 0.00 | 0.00 | 0.00 | 44 | 1007.0 |
| 20260505181941 | 13 | 313 | 8.0 | 22.5 | 0.00 | 0.00 | 0.00 | 39 | 1007.0 |
| 20260505181458 | 12 | 286 | 8.0 | 16.1 | 0.00 | 0.00 | 0.00 | 42 | 1006.9 |
| 20260505181230 | 12 | 285 | 9.7 | 19.3 | 0.00 | 0.00 | 0.00 | 39 | 1006.8 |
| 20260505180958 | 12 | 335 | 8.0 | 19.3 | 0.00 | 0.00 | 0.00 | 40 | 1006.8 |
| 20260505180042 | 12 | 317 | 8.0 | 17.7 | 0.00 | 0.00 | 0.00 | 44 | 1006.8 |
| 20260505175352 | 12 | 309 | 8.0 | 17.7 | 0.00 | 0.00 | 0.00 | 46 | 1006.8 |
| 20260505173908 | 11 | 309 | 0.0 | 3.2 | 0.00 | 0.00 | 0.00 | 75 | 1002.6 |
| 20260505173718 | 12 | 310 | 9.7 | 17.7 | 0.00 | 0.00 | 0.00 | 44 | 1007.0 |
| 20260505173450 | 12 | 302 | 8.0 | 20.9 | 0.00 | 0.00 | 0.00 | 41 | 1007.0 |
| 20260505172805 | 12 | 332 | 6.4 | 20.9 | 0.00 | 0.00 | 0.00 | 42 | 1006.9 |
| 20260505172325 | 12 | 320 | 6.4 | 14.5 | 0.00 | 0.00 | 0.00 | 45 | 1006.9 |
| 20260505171837 | 12 | 322 | 8.0 | 17.7 | 0.00 | 0.00 | 0.00 | 45 | 1007.0 |
| 20260505171613 | 12 | 311 | 8.0 | 17.7 | 0.00 | 0.00 | 0.00 | 42 | 1007.0 |
| 20260505170157 | 12 | 314 | 9.7 | 19.3 | 0.00 | 0.00 | 0.00 | 42 | 1006.6 |
| 20260505165810 | 12 | 327 | 8.0 | 16.1 | 0.00 | 0.00 | 0.00 | 42 | 1006.7 |
| 20260505165100 | 12 | 325 | 6.4 | 17.7 | 0.00 | 0.00 | 0.00 | 47 | 1006.5 |
| 20260505164137 | 12 | 322 | 8.0 | 17.7 | 0.00 | 0.00 | 0.00 | 45 | 1006.3 |
| 20260505163739 | 11 | 309 | 0.0 | 3.2 | 0.00 | 0.00 | 0.00 | 75 | 1002.7 |
| 20260505163622 | 12 | 315 | 8.0 | 17.7 | 0.00 | 0.00 | 0.00 | 44 | 1006.3 |
| 20260505163222 | 11 | 309 | 1.6 | 4.8 | 0.00 | 0.00 | 0.00 | 75 | 1002.9 |
| 20260505163041 | 12 | 315 | 9.7 | 19.3 | 0.00 | 0.00 | 0.00 | 45 | 1006.4 |
| 20260505162549 | 12 | 285 | 8.0 | 19.3 | 0.00 | 0.00 | 0.00 | 43 | 1006.5 |
| 20260505161838 | 12 | 312 | 8.0 | 16.1 | 0.00 | 0.00 | 0.00 | 46 | 1006.6 |
| 20260505161131 | 12 | 317 | 8.0 | 14.5 | 0.00 | 0.00 | 0.00 | 46 | 1006.7 |
| 20260505160631 | 12 | 310 | 8.0 | 16.1 | 0.00 | 0.00 | 0.00 | 46 | 1006.6 |
| 20260505160141 | 12 | 316 | 8.0 | 16.1 | 0.00 | 0.00 | 0.00 | 47 | 1006.7 |
| 20260505153327 | 11 | 315 | 8.0 | 22.5 | 0.00 | 0.00 | 0.00 | 44 | 1006.6 |
| 20260505152216 | 12 | 313 | 8.0 | 17.7 | 0.00 | 0.00 | 0.00 | 42 | 1006.7 |
| 20260505151748 | 12 | 317 | 8.0 | 16.1 | 0.00 | 0.00 | 0.00 | 46 | 1006.7 |
| 20260505151100 | 12 | 308 | 6.4 | 12.9 | 0.00 | 0.00 | 0.00 | 45 | 1006.8 |
| 20260505140223 | 10 | 317 | 6.4 | 16.1 | 0.00 | 0.00 | 0.00 | 55 | 1006.8 |
| 20260505124651 | 7 | 302 | 1.6 | 4.8 | 0.00 | 0.00 | 0.00 | 61 | 1006.4 |
| 20260505124016 | 7 | 302 | 1.6 | 4.8 | 0.00 | 0.00 | 0.00 | 60 | 1006.8 |
| 20260505123320 | 7 | 302 | 1.6 | 6.4 | 0.00 | 0.00 | 0.00 | 62 | 1007.1 |
| 20260505122405 | 7 | 311 | 3.2 | 8.0 | 0.00 | 0.00 | 0.00 | 63 | 1007.2 |
| 20260505122137 | 7 | 307 | 3.2 | 6.4 | 0.00 | 0.00 | 0.00 | 63 | 1006.5 |
| 20260505120959 | 7 | 307 | 3.2 | 6.4 | 0.00 | 0.00 | 0.00 | 63 | 1006.5 |
| 20260505120646 | 7 | 312 | 1.6 | 6.4 | 0.00 | 0.00 | 0.00 | 62 | 1006.6 |
| 20260505120152 | 7 | 321 | 3.2 | 6.4 | 0.00 | 0.00 | 0.00 | 62 | 1005.9 |
| 20260505115855 | 7 | 321 | 3.2 | 6.4 | 0.00 | 0.00 | 0.00 | 60 | 1006.3 |
| 20260505113217 | 7 | 321 | 1.6 | 3.2 | 0.00 | 0.00 | 0.00 | 61 | 1004.9 |
| 20260505112524 | 7 | 321 | 1.6 | 4.8 | 0.00 | 0.00 | 0.00 | 60 | 1004.8 |
| 20260505112101 | 13 | 309 | 0.0 | 3.2 | 0.00 | 0.00 | 0.00 | 67 | 1003.4 |
| 20260505112004 | 7 | 321 | 1.6 | 4.8 | 0.00 | 0.00 | 0.00 | 61 | 1004.9 |
| 20260505101836 | 7 | 327 | 1.6 | 3.2 | 0.00 | 0.00 | 0.00 | 62 | 1004.8 |
| 20260505100034 | 7 | 327 | 0.0 | 1.6 | 0.00 | 0.00 | 0.00 | 59 | 1004.6 |
| 20260505094757 | 14 | 309 | 0.0 | 0.0 | 0.00 | 0.00 | 0.00 | 62 | 1003.5 |
| 20260505094712 | 14 | 309 | 0.0 | 1.6 | 0.00 | 0.00 | 0.00 | 61 | 1003.5 |
| 20260505094658 | 15 | 309 | 0.0 | 1.6 | 0.00 | 0.00 | 0.00 | 61 | 1003.5 |
| 20260505094544 | 16 | 309 | 0.0 | 1.6 | 0.00 | 0.00 | 0.00 | 56 | 1003.3 |
| 20260505094440 | 7 | 327 | 1.6 | 4.8 | 0.00 | 0.00 | 0.00 | 60 | 1004.2 |
| 20260505094343 | 17 | 309 | 0.0 | 3.2 | 0.00 | 0.00 | 0.00 | 53 | 1003.1 |
| 20260505094337 | 18 | 309 | 3.2 | 6.4 | 0.00 | 0.00 | 0.00 | 51 | 1003.0 |
| 20260505094308 | 18 | 324 | 3.2 | 9.7 | 0.00 | 0.00 | 0.00 | 50 | 1002.9 |
| 20260505094302 | 18 | 34 | 1.6 | 6.4 | 0.00 | 0.00 | 0.00 | 50 | 1003.0 |
| 20260505094257 | 19 | 323 | 3.2 | 12.9 | 0.00 | 0.00 | 0.00 | 51 | 1002.9 |
| 20260505093625 | 7 | 327 | 3.2 | 6.4 | 0.00 | 0.00 | 0.00 | 59 | 1004.3 |
| 20260505092649 | 7 | 346 | 1.6 | 6.4 | 0.00 | 0.00 | 0.00 | 60 | 1005.1 |
| 20260505092013 | 7 | 317 | 1.6 | 6.4 | 0.00 | 0.00 | 0.00 | 59 | 1004.8 |
| 20260505091740 | 8 | 323 | 1.6 | 4.8 | 0.00 | 0.00 | 0.00 | 60 | 1004.8 |
| 20260505091033 | 8 | 323 | 1.6 | 4.8 | 0.00 | 0.00 | 0.00 | 60 | 1004.4 |
| 20260505090143 | 8 | 325 | 1.6 | 3.2 | 0.00 | 0.00 | 0.00 | 60 | 1004.0 |
| 20260505085858 | 8 | 325 | 1.6 | 4.8 | 0.00 | 0.00 | 0.00 | 60 | 1004.1 |
| 20260505085006 | 8 | 325 | 3.2 | 9.7 | 0.00 | 0.00 | 0.00 | 59 | 1003.6 |
| 20260505084315 | 9 | 315 | 3.2 | 11.3 | 0.00 | 0.00 | 0.00 | 58 | 1003.3 |
| 20260505084053 | 9 | 318 | 3.2 | 9.7 | 0.00 | 0.00 | 0.00 | 58 | 1003.3 |
| 20260505083623 | 9 | 327 | 3.2 | 12.9 | 0.00 | 0.00 | 0.00 | 58 | 1003.2 |
| 20260505083154 | 9 | 327 | 4.8 | 12.9 | 0.00 | 0.00 | 0.00 | 56 | 1003.1 |
| 20260505082936 | 9 | 327 | 4.8 | 14.5 | 0.00 | 0.00 | 0.00 | 56 | 1002.8 |
| 20260505082504 | 10 | 329 | 4.8 | 14.5 | 0.00 | 0.00 | 0.00 | 56 | 1003.0 |
| 20260505082243 | 10 | 303 | 3.2 | 8.0 | 0.00 | 0.00 | 0.00 | 58 | 1003.0 |
| 20260505081347 | 10 | 333 | 3.2 | 6.4 | 0.00 | 0.00 | 0.00 | 58 | 1002.6 |
| 20260505080916 | 10 | 319 | 1.6 | 3.2 | 0.00 | 0.00 | 0.00 | 58 | 1002.5 |
| 20260505074934 | 10 | 323 | 1.6 | 6.4 | 0.00 | 0.00 | 0.00 | 58 | 1002.0 |
| 20260505074459 | 10 | 323 | 3.2 | 8.0 | 0.00 | 0.00 | 0.00 | 58 | 1002.3 |
| 20260505073815 | 10 | 323 | 3.2 | 9.7 | 0.00 | 0.00 | 0.00 | 58 | 1002.2 |
| 20260505073551 | 11 | 321 | 3.2 | 9.7 | 0.00 | 0.00 | 0.00 | 58 | 1002.3 |
| 20260505073128 | 11 | 324 | 3.2 | 6.4 | 0.00 | 0.00 | 0.00 | 58 | 1002.0 |
| 20260505072450 | 11 | 323 | 3.2 | 9.7 | 0.00 | 0.00 | 0.00 | 57 | 1001.8 |
| 20260505070439 | 12 | 326 | 3.2 | 9.7 | 0.00 | 0.00 | 0.00 | 56 | 1001.8 |
| 20260505070205 | 12 | 327 | 4.8 | 9.7 | 0.00 | 0.00 | 0.00 | 55 | 1001.2 |
| 20260505065055 | 12 | 332 | 4.8 | 9.7 | 0.00 | 0.00 | 0.00 | 55 | 1001.2 |
| 20260505064638 | 12 | 329 | 4.8 | 9.7 | 0.00 | 0.00 | 0.00 | 53 | 1001.2 |
| 20260505064213 | 12 | 318 | 4.8 | 11.3 | 0.00 | 0.00 | 0.00 | 53 | 1001.1 |
| 20260505063746 | 13 | 131 | 4.8 | 11.3 | 0.00 | 0.00 | 0.00 | 53 | 1000.8 |
| 20260505063325 | 13 | 331 | 4.8 | 12.9 | 0.00 | 0.00 | 0.00 | 52 | 1000.8 |
| 20260505062854 | 13 | 322 | 4.8 | 12.9 | 0.00 | 0.00 | 0.00 | 51 | 1000.9 |
| 20260505062641 | 13 | 323 | 4.8 | 8.0 | 0.00 | 0.00 | 0.00 | 51 | 1000.7 |
| 20260505061754 | 13 | 321 | 4.8 | 9.7 | 0.00 | 0.00 | 0.00 | 50 | 1000.4 |
| 20260505053613 | 15 | 323 | 6.4 | 14.5 | 0.00 | 0.00 | 0.00 | 48 | 1000.4 |
| 20260505052937 | 15 | 316 | 6.4 | 14.5 | 0.00 | 0.00 | 0.00 | 47 | 1000.3 |
| 20260505052502 | 15 | 321 | 4.8 | 14.5 | 0.00 | 0.00 | 0.00 | 47 | 1000.1 |
| 20260505052025 | 15 | 313 | 4.8 | 12.9 | 0.00 | 0.00 | 0.00 | 46 | 1000.2 |
| 20260505041316 | 16 | 307 | 4.8 | 11.3 | 0.00 | 0.00 | 0.00 | 46 | 999.3 |
| 20260505041056 | 16 | 300 | 4.8 | 11.3 | 0.00 | 0.00 | 0.00 | 46 | 999.1 |
| 20260505040412 | 16 | 319 | 4.8 | 12.9 | 0.00 | 0.00 | 0.00 | 45 | 999.1 |
| 20260505035941 | 16 | 320 | 6.4 | 14.5 | 0.00 | 0.00 | 0.00 | 45 | 998.9 |
| 20260505035259 | 16 | 318 | 6.4 | 14.5 | 0.00 | 0.00 | 0.00 | 45 | 998.8 |
| 20260505034543 | 16 | 313 | 6.4 | 14.5 | 0.00 | 0.00 | 0.00 | 45 | 998.9 |
| 20260505033859 | 16 | 314 | 6.4 | 14.5 | 0.00 | 0.00 | 0.00 | 45 | 998.7 |
| 20260505032555 | 8 | 5 | 3.2 | 8.0 | 0.00 | 0.00 | 0.00 | 64 | 1010.3 |
| 20260505032432 | 16 | 317 | 6.4 | 14.5 | 0.00 | 0.00 | 0.00 | 46 | 998.9 |
| 20260505032137 | 17 | 317 | 6.4 | 14.5 | 0.00 | 0.00 | 0.00 | 46 | 998.9 |
| 20260505031038 | 8 | 232 | 3.2 | 16.1 | 0.00 | 0.00 | 0.00 | 64 | 1010.1 |
| 20260505030938 | 17 | 298 | 3.2 | 9.7 | 0.00 | 0.00 | 0.00 | 47 | 999.0 |
| 20260505030403 | 17 | 308 | 3.2 | 9.7 | 0.00 | 0.00 | 0.00 | 48 | 999.0 |
| 20260505030100 | 17 | 307 | 4.8 | 9.7 | 0.00 | 0.00 | 0.00 | 46 | 999.0 |
| 20260505025540 | 17 | 300 | 3.2 | 9.7 | 0.00 | 0.00 | 0.00 | 46 | 998.9 |
| 20260505025216 | 8 | 283 | 3.2 | 9.7 | 0.00 | 0.00 | 0.00 | 59 | 1010.9 |
| 20260505025122 | 8 | 288 | 3.2 | 12.9 | 0.00 | 0.00 | 0.00 | 60 | 1011.3 |
| 20260505025013 | 18 | 328 | 4.8 | 12.9 | 0.00 | 0.00 | 0.00 | 46 | 998.8 |
| 20260505024523 | 18 | 317 | 4.8 | 12.9 | 0.00 | 0.00 | 0.00 | 46 | 998.7 |
| 20260505024047 | 18 | 318 | 4.8 | 9.7 | 0.00 | 0.00 | 0.00 | 47 | 998.7 |
| 20260505023406 | 7 | 215 | 1.6 | 8.0 | 0.00 | 0.00 | 0.00 | 61 | 1011.3 |
| 20260505023356 | 18 | 313 | 4.8 | 11.3 | 0.00 | 0.00 | 0.00 | 47 | 998.6 |
| 20260505023130 | 18 | 308 | 6.4 | 17.7 | 0.00 | 0.00 | 0.00 | 46 | 998.4 |
| 20260505022857 | 18 | 314 | 6.4 | 17.7 | 0.00 | 0.00 | 0.00 | 45 | 998.4 |
| 20260505021058 | 19 | 315 | 4.8 | 12.9 | 0.00 | 0.00 | 0.00 | 49 | 997.6 |
| 20260505020429 | 7 | 246 | 1.6 | 9.7 | 0.00 | 0.00 | 0.00 | 61 | 1011.2 |
| 20260505020340 | 7 | 293 | 3.2 | 8.0 | 0.00 | 0.00 | 0.00 | 62 | 1011.3 |
| 20260505020336 | 20 | 306 | 4.8 | 9.7 | 0.00 | 0.00 | 0.00 | 50 | 997.4 |
| 20260505020107 | 20 | 302 | 3.2 | 9.7 | 0.00 | 0.00 | 0.00 | 48 | 997.3 |
| 20260505015839 | 20 | 313 | 3.2 | 6.4 | 0.00 | 0.00 | 0.00 | 51 | 997.2 |
| 20260505015618 | 20 | 313 | 3.2 | 6.4 | 0.00 | 0.00 | 0.00 | 50 | 997.1 |
| 20260505014943 | 20 | 313 | 3.2 | 6.4 | 0.00 | 0.00 | 0.00 | 50 | 996.9 |
| 20260505014514 | 20 | 313 | 3.2 | 6.4 | 0.00 | 0.00 | 0.00 | 49 | 996.8 |
| 20260505014256 | 20 | 313 | 3.2 | 6.4 | 0.00 | 0.00 | 0.00 | 50 | 996.8 |
| 20260505013629 | 20 | 311 | 3.2 | 8.0 | 0.00 | 0.00 | 0.00 | 50 | 996.6 |
| 20260505012256 | 21 | 319 | 3.2 | 9.7 | 0.00 | 0.00 | 0.00 | 51 | 996.4 |
| 20260505011824 | 21 | 319 | 3.2 | 9.7 | 0.00 | 0.00 | 0.00 | 52 | 996.2 |
| 20260505011353 | 21 | 317 | 1.6 | 6.4 | 0.00 | 0.00 | 0.00 | 51 | 995.7 |
| 20260505011112 | 21 | 316 | 3.2 | 6.4 | 0.00 | 0.00 | 0.00 | 50 | 995.3 |
| 20260505010007 | 21 | 316 | 3.2 | 6.4 | 0.00 | 0.00 | 0.00 | 49 | 995.1 |
| 20260505005515 | 22 | 316 | 1.6 | 4.8 | 0.00 | 0.00 | 0.00 | 49 | 995.0 |
| 20260505004603 | 22 | 316 | 1.6 | 4.8 | 0.00 | 0.00 | 0.00 | 47 | 994.9 |
| 20260505003939 | 7 | 297 | 3.2 | 8.0 | 0.00 | 0.00 | 0.00 | 62 | 1011.4 |
| 20260505003859 | 7 | 324 | 3.2 | 6.4 | 0.00 | 0.00 | 0.00 | 64 | 1011.4 |
| 20260505003327 | 22 | 316 | 1.6 | 6.4 | 0.00 | 0.00 | 0.00 | 45 | 994.8 |
| 20260505003053 | 23 | 316 | 3.2 | 6.4 | 0.00 | 0.00 | 0.00 | 44 | 994.8 |
| 20260505002609 | 23 | 323 | 3.2 | 6.4 | 0.00 | 0.00 | 0.00 | 44 | 994.5 |
| 20260505001910 | 23 | 323 | 1.6 | 6.4 | 0.00 | 0.00 | 0.00 | 43 | 994.4 |
| 20260505001428 | 23 | 319 | 3.2 | 6.4 | 0.00 | 0.00 | 0.00 | 43 | 994.3 |
| 20260505001112 | 6 | 252 | 1.6 | 6.4 | 0.00 | 0.00 | 0.00 | 65 | 1011.6 |
| 20260505001022 | 6 | 284 | 1.6 | 4.8 | 0.00 | 0.00 | 0.00 | 65 | 1011.8 |
| 20260505000850 | 23 | 322 | 3.2 | 6.4 | 0.00 | 0.00 | 0.00 | 43 | 994.3 |
| 20260505000617 | 23 | 322 | 3.2 | 6.4 | 0.00 | 0.00 | 0.00 | 41 | 994.4 |
| 20260504235914 | 23 | 322 | 3.2 | 6.4 | 0.00 | 0.00 | 0.00 | 41 | 994.4 |
| 20260504235433 | 23 | 323 | 3.2 | 8.0 | 0.00 | 0.00 | 0.00 | 42 | 994.5 |
| 20260504234949 | 23 | 330 | 3.2 | 12.9 | 0.00 | 0.00 | 0.00 | 40 | 994.5 |
| 20260504234725 | 23 | 289 | 4.8 | 12.9 | 0.00 | 0.00 | 0.00 | 40 | 994.6 |
| 20260504234459 | 23 | 101 | 6.4 | 17.7 | 0.00 | 0.00 | 0.00 | 42 | 994.8 |
| 20260504234029 | 23 | 220 | 8.0 | 17.7 | 0.00 | 0.00 | 0.00 | 40 | 994.7 |
| 20260504233534 | 23 | 317 | 6.4 | 17.7 | 0.00 | 0.00 | 0.00 | 41 | 994.8 |
| 20260504232633 | 23 | 320 | 11.3 | 30.6 | 0.00 | 0.00 | 0.00 | 42 | 994.5 |
| 20260504231925 | 23 | 304 | 14.5 | 30.6 | 0.00 | 0.00 | 0.00 | 41 | 994.7 |
| 20260504231650 | 23 | 313 | 16.1 | 37.0 | 0.00 | 0.00 | 0.00 | 38 | 995.1 |
| 20260504230952 | 24 | 315 | 14.5 | 37.0 | 0.00 | 0.00 | 0.00 | 36 | 995.3 |
| 20260504230436 | 25 | 300 | 8.0 | 20.9 | 0.00 | 0.00 | 0.00 | 36 | 995.0 |
| 20260504225954 | 25 | 316 | 8.0 | 19.3 | 0.00 | 0.00 | 0.00 | 38 | 994.9 |
| 20260504225640 | 6 | 271 | 1.6 | 9.7 | 0.00 | 0.00 | 0.00 | 65 | 1012.1 |
| 20260504225625 | 6 | 269 | 1.6 | 4.8 | 0.00 | 0.00 | 0.00 | 66 | 1012.4 |
| 20260504225428 | 25 | 285 | 8.0 | 19.3 | 0.00 | 0.00 | 0.00 | 37 | 994.8 |
| 20260504224929 | 25 | 319 | 9.7 | 20.9 | 0.00 | 0.00 | 0.00 | 37 | 994.9 |
| 20260504224657 | 25 | 306 | 9.7 | 20.9 | 0.00 | 0.00 | 0.00 | 36 | 995.0 |
| 20260504224204 | 25 | 319 | 9.7 | 24.1 | 0.00 | 0.00 | 0.00 | 36 | 995.0 |
| 20260504223940 | 25 | 323 | 8.0 | 24.1 | 0.00 | 0.00 | 0.00 | 37 | 995.0 |
| 20260504223255 | 25 | 313 | 8.0 | 24.1 | 0.00 | 0.00 | 0.00 | 36 | 995.1 |
| 20260504222813 | 25 | 315 | 9.7 | 24.1 | 0.00 | 0.00 | 0.00 | 35 | 995.1 |
| 20260504222544 | 26 | 292 | 9.7 | 19.3 | 0.00 | 0.00 | 0.00 | 34 | 995.1 |
| 20260504222324 | 26 | 304 | 9.7 | 25.7 | 0.00 | 0.00 | 0.00 | 33 | 995.2 |
| 20260504221826 | 26 | 5 | 9.7 | 25.7 | 0.00 | 0.00 | 0.00 | 33 | 995.1 |
| 20260504221146 | 26 | 311 | 9.7 | 24.1 | 0.00 | 0.00 | 0.00 | 34 | 995.2 |
| 20260504215939 | 26 | 315 | 11.3 | 24.1 | 0.00 | 0.00 | 0.00 | 34 | 995.2 |
| 20260504215723 | 26 | 309 | 11.3 | 24.1 | 0.00 | 0.00 | 0.00 | 34 | 995.2 |
| 20260504215501 | 26 | 319 | 11.3 | 24.1 | 0.00 | 0.00 | 0.00 | 33 | 995.3 |
| 20260504215027 | 26 | 324 | 12.9 | 25.7 | 0.00 | 0.00 | 0.00 | 33 | 995.4 |
| 20260504214753 | 26 | 234 | 11.3 | 25.7 | 0.00 | 0.00 | 0.00 | 31 | 995.5 |